Time;durP1;ratioP1;P1;durP2;ratioP2;P2;SDS_P1;SDS_P2;PMS_P1;PMS_P2;Temp;Humidity;BMP_temperature;BMP_pressure;BME280_temperature;BME280_humidity;BME280_pressure;Samples;Min_cycle;Max_cycle;Signal;HPM_P1;HPM_P2
2021/10/06 00:00:49;;;;;;;11.75;3.97;;;18.80;61.30;;;;;;5041338;28;20025;-73
2021/10/06 00:03:15;;;;;;;7.18;2.15;;;18.80;61.40;;;;;;5041394;28;20045;-73
2021/10/06 00:05:42;;;;;;;5.30;1.90;;;18.80;61.50;;;;;;5040943;28;20503;-73
2021/10/06 00:08:10;;;;;;;5.53;1.85;;;18.70;61.60;;;;;;5043813;28;20029;-74
2021/10/06 00:10:37;;;;;;;7.10;3.03;;;18.70;61.80;;;;;;5041974;28;20362;-73
2021/10/06 00:13:03;;;;;;;6.13;2.85;;;18.60;62.00;;;;;;5044227;28;20016;-73
2021/10/06 00:15:30;;;;;;;3.83;2.42;;;18.60;62.10;;;;;;5040097;28;20044;-74
2021/10/06 00:17:56;;;;;;;6.80;1.90;;;18.60;62.20;;;;;;5044763;28;20029;-73
2021/10/06 00:20:23;;;;;;;11.07;2.10;;;18.60;62.20;;;;;;5043116;28;20099;-73
2021/10/06 00:22:49;;;;;;;6.90;2.00;;;18.50;62.20;;;;;;5040884;28;20069;-73
2021/10/06 00:25:16;;;;;;;2.95;1.35;;;18.60;62.20;;;;;;5041686;28;20044;-74
2021/10/06 00:27:43;;;;;;;4.75;1.88;;;18.60;62.30;;;;;;5041490;28;20021;-74
2021/10/06 00:30:10;;;;;;;6.40;1.98;;;18.60;62.40;;;;;;5047677;28;20134;-73
2021/10/06 00:32:36;;;;;;;9.43;1.85;;;18.60;62.40;;;;;;5039181;28;20678;-73
2021/10/06 00:35:03;;;;;;;5.90;1.52;;;18.60;62.20;;;;;;5039889;28;20109;-74
2021/10/06 00:37:30;;;;;;;8.27;2.78;;;18.60;62.10;;;;;;5042118;28;20032;-73
2021/10/06 00:39:56;;;;;;;6.32;1.60;;;18.60;62.20;;;;;;5048210;28;20013;-74
2021/10/06 00:42:23;;;;;;;4.65;1.83;;;18.60;62.10;;;;;;5045336;28;20025;-73
2021/10/06 00:44:49;;;;;;;5.20;1.85;;;18.60;62.20;;;;;;5042062;28;20029;-73
2021/10/06 00:47:16;;;;;;;3.50;1.70;;;18.60;62.30;;;;;;5056929;28;20056;-74
2021/10/06 00:49:42;;;;;;;10.20;3.42;;;18.60;62.40;;;;;;5041010;28;20443;-74
2021/10/06 00:52:14;;;;;;;11.55;2.97;;;18.50;62.40;;;;;;5043870;28;20522;-74
2021/10/06 00:54:42;;;;;;;10.63;2.65;;;18.50;62.50;;;;;;5040420;28;20092;-73
2021/10/06 00:57:08;;;;;;;5.40;1.67;;;18.50;62.60;;;;;;5038593;28;20018;-73
2021/10/06 00:59:35;;;;;;;4.93;1.40;;;18.50;62.60;;;;;;5048755;28;20033;-73
2021/10/06 01:02:02;;;;;;;7.50;2.55;;;18.60;62.70;;;;;;5040804;28;20075;-73
2021/10/06 01:04:28;;;;;;;6.15;1.65;;;18.50;62.50;;;;;;5041380;28;20097;-73
2021/10/06 01:06:55;;;;;;;9.02;2.08;;;18.50;62.50;;;;;;5040268;28;20074;-74
2021/10/06 01:09:28;;;;;;;6.63;1.52;;;18.50;62.40;;;;;;5044029;28;20056;-73
2021/10/06 01:11:56;;;;;;;9.82;1.90;;;18.50;62.30;;;;;;5045896;28;20082;-73
2021/10/06 01:14:27;;;;;;;12.95;2.28;;;18.50;62.60;;;;;;5054204;28;20017;-73
2021/10/06 01:16:54;;;;;;;5.63;1.80;;;18.50;62.50;;;;;;5045049;28;20017;-74
2021/10/06 01:19:24;;;;;;;6.93;2.10;;;18.40;63.00;;;;;;5054589;28;20504;-74
2021/10/06 01:21:52;;;;;;;4.53;1.50;;;18.40;62.40;;;;;;5041546;28;20080;-74
2021/10/06 01:24:19;;;;;;;6.63;2.08;;;18.30;62.50;;;;;;5041368;28;20029;-74
2021/10/06 01:26:46;;;;;;;9.02;1.80;;;18.30;62.60;;;;;;5043158;28;20025;-74
2021/10/06 01:29:14;;;;;;;8.00;2.00;;;18.30;62.80;;;;;;5036503;28;20025;-74
2021/10/06 01:31:43;;;;;;;8.35;1.60;;;18.20;63.00;;;;;;5042924;28;20036;-74
2021/10/06 01:34:10;;;;;;;3.72;1.65;;;18.20;63.20;;;;;;5038070;28;20024;-74
2021/10/06 01:36:37;;;;;;;4.80;2.00;;;18.20;63.30;;;;;;5039841;28;20420;-73
2021/10/06 01:39:09;;;;;;;7.03;2.80;;;18.20;63.60;;;;;;5041207;28;20017;-73
2021/10/06 01:41:36;;;;;;;11.00;2.70;;;18.20;64.00;;;;;;5039912;28;20047;-73
2021/10/06 01:44:04;;;;;;;7.35;2.15;;;18.20;64.10;;;;;;5063101;28;20031;-74
2021/10/06 01:46:30;;;;;;;13.50;3.00;;;18.20;64.20;;;;;;5039964;28;20664;-73
2021/10/06 01:48:57;;;;;;;5.93;2.67;;;18.20;64.00;;;;;;5043592;28;20022;-73
2021/10/06 01:51:26;;;;;;;4.93;1.83;;;18.20;64.10;;;;;;5041723;28;20021;-73
2021/10/06 01:53:53;;;;;;;6.35;1.80;;;18.10;63.90;;;;;;5048436;28;20379;-73
2021/10/06 01:56:19;;;;;;;5.68;1.75;;;18.10;63.90;;;;;;5038220;28;20030;-74
2021/10/06 01:58:47;;;;;;;7.72;1.65;;;18.10;63.90;;;;;;5045625;28;20018;-74
2021/10/06 02:01:13;;;;;;;8.40;2.10;;;18.10;63.80;;;;;;5037349;28;20108;-74
2021/10/06 02:03:40;;;;;;;6.93;1.40;;;18.10;63.70;;;;;;5036215;28;20052;-73
2021/10/06 02:06:06;;;;;;;7.00;1.92;;;18.10;63.60;;;;;;5042334;28;20020;-74
2021/10/06 02:08:33;;;;;;;4.72;1.52;;;18.10;63.60;;;;;;5036467;28;20025;-73
2021/10/06 02:10:59;;;;;;;5.00;1.48;;;18.10;63.60;;;;;;5044905;28;20484;-74
2021/10/06 02:13:26;;;;;;;7.05;2.10;;;18.10;64.20;;;;;;5037066;28;20358;-73
2021/10/06 02:15:52;;;;;;;4.82;1.75;;;18.20;63.60;;;;;;5041167;28;20071;-73
2021/10/06 02:18:19;;;;;;;6.38;1.75;;;18.20;63.60;;;;;;5038634;28;20030;-74
2021/10/06 02:20:46;;;;;;;7.15;2.25;;;18.20;63.60;;;;;;5045972;28;20112;-74
2021/10/06 02:23:13;;;;;;;4.38;2.33;;;18.20;63.60;;;;;;5039851;28;20103;-74
2021/10/06 02:25:40;;;;;;;5.50;1.60;;;18.20;63.30;;;;;;5038044;28;20092;-74
2021/10/06 02:28:07;;;;;;;7.90;2.38;;;18.20;63.40;;;;;;5037028;28;20018;-74
2021/10/06 02:30:34;;;;;;;2.95;1.17;;;18.20;63.30;;;;;;5043929;28;20075;-74
2021/10/06 02:33:01;;;;;;;6.50;1.60;;;18.20;63.30;;;;;;5038479;28;20016;-73
2021/10/06 02:35:28;;;;;;;7.47;2.25;;;18.20;63.10;;;;;;5042475;28;20012;-74
2021/10/06 02:37:54;;;;;;;7.72;1.60;;;18.20;62.90;;;;;;5044267;28;20017;-73
2021/10/06 02:40:22;;;;;;;9.07;2.15;;;18.20;62.90;;;;;;5039412;28;20025;-73
2021/10/06 02:42:49;;;;;;;4.78;1.40;;;18.20;62.90;;;;;;5038846;28;20063;-74
2021/10/06 02:45:18;;;;;;;5.75;1.70;;;18.20;62.70;;;;;;5044561;28;20113;-73
2021/10/06 02:47:46;;;;;;;5.72;1.05;;;18.20;63.50;;;;;;5045493;28;20018;-74
2021/10/06 02:50:16;;;;;;;6.03;1.73;;;18.20;62.90;;;;;;5039365;28;20018;-74
2021/10/06 02:52:43;;;;;;;6.78;1.55;;;18.10;63.00;;;;;;5044531;28;20025;-73
2021/10/06 02:55:10;;;;;;;8.55;2.00;;;18.10;63.00;;;;;;5040359;28;20020;-73
2021/10/06 02:57:37;;;;;;;6.78;1.13;;;18.10;63.10;;;;;;5041091;28;20017;-74
2021/10/06 03:00:08;;;;;;;9.82;2.47;;;18.10;62.90;;;;;;5041609;28;20418;-73
2021/10/06 03:02:36;;;;;;;5.13;1.55;;;18.10;63.20;;;;;;5040255;28;20042;-73
2021/10/06 03:05:03;;;;;;;5.30;1.55;;;18.10;63.10;;;;;;5042923;28;20012;-73
2021/10/06 03:07:30;;;;;;;4.35;1.00;;;18.10;63.20;;;;;;5037933;28;20022;-73
2021/10/06 03:09:56;;;;;;;6.43;2.08;;;18.10;63.30;;;;;;5040071;28;20029;-73
2021/10/06 03:12:23;;;;;;;4.28;1.50;;;18.10;63.50;;;;;;5039004;28;20024;-73
2021/10/06 03:14:49;;;;;;;5.32;1.60;;;18.10;63.70;;;;;;5044557;28;20480;-73
2021/10/06 03:17:16;;;;;;;6.57;1.63;;;18.00;64.60;;;;;;5039720;28;20362;-73
2021/10/06 03:19:42;;;;;;;4.18;1.73;;;18.00;64.20;;;;;;5040224;28;20013;-73
2021/10/06 03:22:09;;;;;;;5.35;1.95;;;18.00;64.50;;;;;;5046187;28;20028;-72
2021/10/06 03:24:35;;;;;;;4.75;2.13;;;18.00;64.70;;;;;;5043255;28;20028;-73
2021/10/06 03:27:02;;;;;;;6.65;2.38;;;18.00;64.90;;;;;;5044255;28;20510;-73
2021/10/06 03:29:28;;;;;;;8.48;1.80;;;18.00;65.10;;;;;;5041233;28;20033;-72
2021/10/06 03:31:55;;;;;;;7.00;2.08;;;18.00;65.30;;;;;;5040915;28;20032;-71
2021/10/06 03:34:21;;;;;;;7.80;1.67;;;18.00;65.60;;;;;;5060121;28;21030;-73
2021/10/06 03:36:48;;;;;;;9.15;2.50;;;18.00;65.70;;;;;;5043852;28;20017;-74
2021/10/06 03:39:14;;;;;;;13.07;2.88;;;17.90;65.60;;;;;;5043145;28;20619;-74
2021/10/06 03:41:41;;;;;;;8.90;2.53;;;17.90;65.70;;;;;;5042223;28;20109;-73
2021/10/06 03:44:08;;;;;;;3.28;1.35;;;17.90;65.80;;;;;;5049262;28;20021;-73
2021/10/06 03:46:35;;;;;;;5.15;1.88;;;17.90;65.70;;;;;;5044509;28;20017;-74
2021/10/06 03:49:01;;;;;;;6.97;1.67;;;17.90;65.70;;;;;;5041962;28;20013;-73
2021/10/06 03:51:28;;;;;;;7.80;1.70;;;17.90;65.80;;;;;;5043755;28;20107;-74
2021/10/06 03:53:54;;;;;;;6.20;1.95;;;17.90;66.10;;;;;;5042692;28;20030;-73
2021/10/06 03:56:21;;;;;;;7.63;2.53;;;17.80;66.30;;;;;;5042993;28;20097;-72
2021/10/06 03:58:47;;;;;;;4.90;1.92;;;17.90;66.50;;;;;;5042304;28;20431;-71
2021/10/06 04:01:14;;;;;;;9.73;6.63;;;17.80;66.60;;;;;;5042012;28;20016;-74
2021/10/06 04:03:40;;;;;;;25.75;20.42;;;17.80;66.70;;;;;;5042889;28;20067;-77
2021/10/06 04:06:07;;;;;;;33.78;15.30;;;17.90;66.60;;;;;;5043629;28;20012;-70
2021/10/06 04:08:33;;;;;;;24.77;7.55;;;17.80;66.50;;;;;;5043541;28;20392;-73
2021/10/06 04:11:00;;;;;;;24.80;15.20;;;17.80;66.40;;;;;;5047086;28;20017;-71
2021/10/06 04:13:27;;;;;;;20.25;6.88;;;17.80;66.60;;;;;;5042588;28;20017;-75
2021/10/06 04:15:53;;;;;;;12.95;3.53;;;17.80;66.70;;;;;;5044837;28;20036;-74
2021/10/06 04:18:20;;;;;;;20.85;6.90;;;17.80;66.80;;;;;;5045182;28;20477;-69
2021/10/06 04:20:46;;;;;;;16.00;3.80;;;17.80;67.00;;;;;;5043949;28;20076;-70
2021/10/06 04:23:13;;;;;;;6.25;2.45;;;17.80;67.70;;;;;;5039650;28;20021;-72
2021/10/06 04:25:39;;;;;;;4.85;1.77;;;17.80;67.00;;;;;;5037480;28;20529;-72
2021/10/06 04:28:06;;;;;;;6.97;2.38;;;17.80;66.80;;;;;;5046808;28;20475;-72
2021/10/06 04:30:32;;;;;;;7.07;2.20;;;17.80;66.70;;;;;;5041833;28;20033;-74
2021/10/06 04:32:59;;;;;;;8.95;1.83;;;17.70;66.60;;;;;;5043727;28;20027;-74
2021/10/06 04:35:25;;;;;;;17.73;14.15;;;17.70;66.90;;;;;;5047110;28;20074;-74
2021/10/06 04:37:52;;;;;;;21.70;12.57;;;17.70;66.70;;;;;;5045848;28;20057;-75
2021/10/06 04:40:19;;;;;;;9.98;4.38;;;17.70;66.80;;;;;;5044559;28;20022;-77
2021/10/06 04:42:46;;;;;;;6.78;3.17;;;17.70;67.30;;;;;;5041867;28;20830;-76
2021/10/06 04:45:13;;;;;;;11.07;3.55;;;17.70;67.30;;;;;;5040839;28;20022;-75
2021/10/06 04:47:40;;;;;;;9.68;4.70;;;17.60;66.90;;;;;;5046251;28;20021;-72
2021/10/06 04:50:08;;;;;;;9.63;2.97;;;17.70;67.10;;;;;;5047240;28;20029;-76
2021/10/06 04:52:35;;;;;;;13.63;2.65;;;17.60;67.20;;;;;;5044032;28;20092;-74
2021/10/06 04:55:01;;;;;;;10.13;2.05;;;17.60;67.10;;;;;;5042685;28;20029;-75
2021/10/06 04:57:28;;;;;;;9.98;2.53;;;17.50;67.00;;;;;;5043048;28;20031;-75
2021/10/06 04:59:54;;;;;;;11.38;2.30;;;17.50;67.00;;;;;;5041964;28;20491;-75
2021/10/06 05:02:21;;;;;;;7.93;2.95;;;17.50;67.80;;;;;;5042536;28;20049;-75
2021/10/06 05:04:47;;;;;;;8.02;2.85;;;17.50;67.20;;;;;;5042335;28;20059;-75
2021/10/06 05:07:14;;;;;;;3.85;1.92;;;17.50;67.30;;;;;;5041419;28;20028;-76
2021/10/06 05:09:40;;;;;;;7.85;1.95;;;17.50;67.30;;;;;;5037942;28;20096;-75
2021/10/06 05:12:07;;;;;;;10.30;1.90;;;17.50;67.50;;;;;;5038659;28;20030;-73
2021/10/06 05:14:37;;;;;;;11.15;2.17;;;17.50;67.60;;;;;;5040702;28;20025;-74
2021/10/06 05:17:04;;;;;;;5.93;1.83;;;17.50;67.30;;;;;;5019796;28;20481;-75
2021/10/06 05:19:30;;;;;;;4.68;1.88;;;17.50;67.40;;;;;;5036166;28;20051;-74
2021/10/06 05:21:57;;;;;;;7.18;2.03;;;17.50;67.40;;;;;;5035863;28;20079;-74
2021/10/06 05:24:24;;;;;;;5.20;1.75;;;17.60;67.40;;;;;;5034378;28;20033;-74
2021/10/06 05:26:51;;;;;;;8.93;2.50;;;17.60;67.40;;;;;;5038476;28;20021;-75
2021/10/06 05:29:17;;;;;;;4.40;1.95;;;17.60;67.40;;;;;;5043894;28;20034;-74
2021/10/06 05:31:44;;;;;;;11.45;2.55;;;17.70;67.40;;;;;;5036037;28;20461;-75
2021/10/06 05:34:10;;;;;;;5.80;2.00;;;17.70;67.50;;;;;;5043370;28;20013;-74
2021/10/06 05:36:36;;;;;;;5.25;2.50;;;17.70;67.20;;;;;;5039016;28;20029;-74
2021/10/06 05:39:03;;;;;;;6.35;2.70;;;17.80;67.10;;;;;;5038263;28;20025;-75
2021/10/06 05:41:30;;;;;;;7.65;4.18;;;17.80;67.00;;;;;;5035830;28;20033;-75
2021/10/06 05:43:57;;;;;;;6.25;1.65;;;17.90;67.10;;;;;;5038102;28;20048;-74
2021/10/06 05:46:26;;;;;;;3.60;2.10;;;17.90;66.80;;;;;;5043225;28;20017;-73
2021/10/06 05:48:53;;;;;;;9.90;3.15;;;17.90;67.20;;;;;;5042873;28;20021;-75
2021/10/06 05:51:19;;;;;;;7.05;2.25;;;18.00;66.20;;;;;;5043360;28;20476;-76
2021/10/06 05:53:46;;;;;;;7.38;1.85;;;18.00;66.30;;;;;;5036496;28;20047;-74
2021/10/06 05:56:12;;;;;;;9.77;2.22;;;18.10;66.30;;;;;;5041159;28;20514;-76
2021/10/06 05:58:39;;;;;;;8.30;3.05;;;18.10;66.20;;;;;;5040419;28;20097;-75
2021/10/06 06:01:05;;;;;;;4.40;1.88;;;18.20;65.90;;;;;;5040551;28;20391;-75
2021/10/06 06:03:32;;;;;;;9.52;2.17;;;18.20;65.70;;;;;;5035166;28;20846;-77
2021/10/06 06:05:59;;;;;;;8.90;2.40;;;18.20;66.30;;;;;;5041885;28;20124;-75
2021/10/06 06:08:25;;;;;;;9.93;2.58;;;18.30;65.70;;;;;;5034127;28;20052;-75
2021/10/06 06:10:52;;;;;;;7.47;2.25;;;18.30;65.70;;;;;;5042390;28;20108;-75
2021/10/06 06:13:18;;;;;;;5.45;2.70;;;18.40;65.70;;;;;;5038615;28;20021;-78
2021/10/06 06:15:46;;;;;;;6.78;1.58;;;18.40;65.60;;;;;;5041372;28;20025;-75
2021/10/06 06:18:13;;;;;;;3.83;1.77;;;18.40;65.70;;;;;;5037541;28;20017;-75
2021/10/06 06:20:39;;;;;;;7.13;1.83;;;18.50;65.50;;;;;;5035376;28;20044;-75
2021/10/06 06:23:06;;;;;;;5.18;2.17;;;18.50;65.40;;;;;;5037168;28;20676;-76
2021/10/06 06:25:32;;;;;;;4.82;1.60;;;18.60;65.20;;;;;;5038871;28;20561;-75
2021/10/06 06:27:59;;;;;;;6.95;2.42;;;18.70;64.90;;;;;;5041394;28;20103;-76
2021/10/06 06:30:25;;;;;;;5.93;2.38;;;18.70;64.40;;;;;;5041851;28;20563;-77
2021/10/06 06:32:52;;;;;;;7.88;2.67;;;18.80;64.10;;;;;;5039380;28;20021;-75
2021/10/06 06:35:19;;;;;;;12.20;2.72;;;18.80;63.60;;;;;;5038977;28;20044;-76
2021/10/06 06:37:45;;;;;;;5.80;2.53;;;18.90;62.30;;;;;;5042873;28;20100;-76
2021/10/06 06:40:12;;;;;;;9.30;2.47;;;18.90;60.50;;;;;;5043058;28;20019;-76
2021/10/06 06:42:38;;;;;;;7.50;1.85;;;19.00;60.10;;;;;;5048189;28;20144;-75
2021/10/06 06:45:06;;;;;;;4.13;1.90;;;19.00;59.90;;;;;;5045282;28;20017;-76
2021/10/06 06:47:33;;;;;;;5.22;2.13;;;19.10;59.60;;;;;;5037832;28;20443;-76
2021/10/06 06:49:59;;;;;;;8.65;2.33;;;19.10;59.50;;;;;;5036118;28;20017;-75
2021/10/06 06:52:27;;;;;;;6.38;2.33;;;19.10;59.30;;;;;;5037089;28;20074;-75
2021/10/06 06:54:53;;;;;;;6.05;1.85;;;19.20;59.30;;;;;;5039228;28;20091;-74
2021/10/06 06:57:20;;;;;;;4.63;1.65;;;19.30;59.40;;;;;;5038161;28;20025;-75
2021/10/06 06:59:46;;;;;;;5.50;1.50;;;19.40;58.80;;;;;;5042293;28;20025;-75
2021/10/06 07:02:13;;;;;;;5.75;2.60;;;19.40;59.20;;;;;;5040890;28;20041;-75
2021/10/06 07:04:40;;;;;;;14.70;2.80;;;19.50;59.30;;;;;;5036938;28;20155;-77
2021/10/06 07:07:07;;;;;;;4.80;1.67;;;19.50;59.30;;;;;;5039710;28;20368;-75
2021/10/06 07:09:49;;;;;;;4.53;1.52;;;19.60;59.20;;;;;;5039791;28;20756;-76
2021/10/06 07:12:20;;;;;;;10.30;2.00;;;19.70;59.10;;;;;;5042468;28;20025;-76
2021/10/06 07:14:50;;;;;;;5.15;1.60;;;19.70;58.80;;;;;;5041964;28;20098;-75
2021/10/06 07:17:18;;;;;;;5.28;1.83;;;19.80;58.50;;;;;;5037074;28;20021;-75
2021/10/06 07:19:46;;;;;;;5.15;1.77;;;19.90;58.50;;;;;;5038010;28;20349;-75
2021/10/06 07:22:14;;;;;;;9.13;2.53;;;20.00;57.90;;;;;;5040954;28;20036;-75
2021/10/06 07:24:40;;;;;;;7.20;2.05;;;20.00;57.20;;;;;;5045604;28;20064;-75
2021/10/06 07:27:08;;;;;;;7.70;2.20;;;20.10;57.30;;;;;;5038650;28;20106;-75
2021/10/06 07:29:55;;;;;;;5.55;2.10;;;20.20;57.00;;;;;;5036513;28;20017;-75
2021/10/06 07:32:22;;;;;;;6.93;1.65;;;20.30;56.30;;;;;;5039440;28;20024;-75
2021/10/06 07:34:49;;;;;;;6.15;2.22;;;20.30;56.30;;;;;;5039270;28;20013;-75
2021/10/06 07:37:15;;;;;;;3.63;1.38;;;20.40;56.30;;;;;;5041557;28;20507;-76
2021/10/06 07:39:41;;;;;;;3.97;1.73;;;20.50;55.80;;;;;;5045545;28;20017;-77
2021/10/06 07:42:08;;;;;;;8.07;2.22;;;20.50;55.70;;;;;;5040888;28;20022;-76
2021/10/06 07:44:35;;;;;;;6.70;1.45;;;20.60;55.20;;;;;;5037927;28;20464;-75
2021/10/06 07:47:01;;;;;;;7.38;1.55;;;20.70;55.10;;;;;;5036358;28;20398;-76
2021/10/06 07:49:28;;;;;;;9.98;2.30;;;20.70;54.60;;;;;;5041000;28;20009;-76
2021/10/06 07:51:54;;;;;;;10.23;1.70;;;20.80;54.60;;;;;;5038199;28;20033;-76
2021/10/06 07:54:21;;;;;;;6.22;1.63;;;20.90;54.90;;;;;;5039848;28;20040;-76
2021/10/06 07:56:47;;;;;;;5.80;1.48;;;20.90;54.80;;;;;;5037240;28;20066;-77
2021/10/06 07:59:14;;;;;;;4.95;1.63;;;21.00;55.00;;;;;;5041226;28;20023;-76
2021/10/06 08:01:40;;;;;;;6.90;1.88;;;21.10;54.50;;;;;;5040536;28;20023;-77
2021/10/06 08:04:07;;;;;;;8.60;2.05;;;21.20;54.40;;;;;;5037622;28;20497;-77
2021/10/06 08:06:33;;;;;;;4.85;2.22;;;21.20;53.90;;;;;;5039065;28;20048;-75
2021/10/06 08:08:59;;;;;;;8.85;2.20;;;21.30;53.90;;;;;;5038399;28;20501;-76
2021/10/06 08:11:26;;;;;;;11.88;2.80;;;21.40;53.50;;;;;;5038861;28;20021;-76
2021/10/06 08:13:53;;;;;;;8.65;2.72;;;21.50;53.20;;;;;;5037426;28;20318;-76
2021/10/06 08:16:19;;;;;;;8.00;2.38;;;21.60;52.00;;;;;;5038487;28;20088;-76
2021/10/06 08:18:46;;;;;;;6.00;2.05;;;21.70;52.40;;;;;;5038396;28;20025;-76
2021/10/06 08:21:12;;;;;;;7.13;2.35;;;21.80;52.50;;;;;;5041730;28;20093;-76
2021/10/06 08:23:39;;;;;;;5.68;1.73;;;21.90;52.40;;;;;;5039364;28;20091;-76
2021/10/06 08:26:05;;;;;;;8.75;1.95;;;22.00;52.60;;;;;;5042617;28;20096;-77
2021/10/06 08:28:32;;;;;;;7.65;2.20;;;22.10;52.70;;;;;;5037586;28;20021;-76
2021/10/06 08:30:59;;;;;;;6.03;2.17;;;22.20;53.00;;;;;;5037342;28;20067;-76
2021/10/06 08:33:25;;;;;;;8.90;2.78;;;22.20;51.90;;;;;;5040900;28;20404;-76
2021/10/06 08:35:52;;;;;;;9.07;2.40;;;22.30;51.50;;;;;;5039346;28;20427;-75
2021/10/06 08:38:19;;;;;;;6.68;1.70;;;22.40;51.10;;;;;;5037422;28;22047;-75
2021/10/06 08:40:45;;;;;;;8.50;1.88;;;22.50;50.70;;;;;;5034364;28;20033;-75
2021/10/06 08:43:13;;;;;;;9.82;2.20;;;22.60;50.60;;;;;;5036502;28;20071;-75
2021/10/06 08:45:40;;;;;;;5.47;1.50;;;22.70;51.00;;;;;;5038423;28;20030;-76
2021/10/06 08:48:09;;;;;;;8.40;1.75;;;22.80;51.00;;;;;;5038845;28;20027;-76
2021/10/06 08:50:38;;;;;;;6.00;1.52;;;22.90;50.20;;;;;;5041379;28;20068;-75
2021/10/06 08:53:05;;;;;;;4.63;1.88;;;22.90;50.10;;;;;;5035494;28;20025;-75
2021/10/06 08:55:32;;;;;;;8.98;2.13;;;23.00;50.40;;;;;;5036958;28;20016;-75
2021/10/06 08:58:04;;;;;;;7.93;1.52;;;23.00;50.50;;;;;;5039156;28;20025;-76
2021/10/06 09:00:31;;;;;;;10.95;1.45;;;23.10;50.70;;;;;;5038368;28;20096;-76
2021/10/06 09:03:08;;;;;;;5.10;1.40;;;23.10;50.80;;;;;;5038576;28;20072;-76
2021/10/06 09:05:34;;;;;;;7.13;2.55;;;23.20;50.70;;;;;;5033227;28;20017;-75
2021/10/06 09:08:05;;;;;;;5.55;1.48;;;23.20;49.70;;;;;;5037563;28;20558;-76
2021/10/06 09:10:35;;;;;;;7.97;2.35;;;23.30;49.70;;;;;;5040514;28;20013;-75
2021/10/06 09:13:07;;;;;;;5.53;1.67;;;23.40;49.70;;;;;;5036703;28;20874;-75
2021/10/06 09:15:52;;;;;;;4.55;1.35;;;23.40;50.00;;;;;;5033348;28;20590;-76
2021/10/06 09:18:20;;;;;;;9.57;2.38;;;23.50;50.10;;;;;;5038820;28;20074;-76
2021/10/06 09:20:48;;;;;;;15.27;3.50;;;23.60;50.20;;;;;;5043111;28;20700;-76
2021/10/06 09:23:17;;;;;;;6.35;1.33;;;23.70;49.90;;;;;;5035570;28;20038;-76
2021/10/06 09:25:54;;;;;;;4.78;1.13;;;23.70;49.30;;;;;;5036405;28;20053;-77
2021/10/06 09:28:23;;;;;;;8.90;1.98;;;23.80;48.60;;;;;;5037997;28;20531;-76
2021/10/06 09:31:02;;;;;;;6.53;1.67;;;23.90;48.40;;;;;;5037411;28;20049;-76
2021/10/06 09:33:48;;;;;;;9.48;1.50;;;24.10;48.40;;;;;;5035044;28;20582;-76
2021/10/06 09:36:19;;;;;;;6.05;2.00;;;24.20;47.80;;;;;;5038141;28;20022;-76
2021/10/06 09:38:50;;;;;;;3.92;1.60;;;24.20;47.30;;;;;;5037699;28;20380;-76
2021/10/06 09:41:40;;;;;;;8.60;1.48;;;24.30;47.40;;;;;;5040187;28;20056;-76
2021/10/06 09:44:08;;;;;;;6.10;1.65;;;24.40;47.90;;;;;;5042329;28;20039;-76
2021/10/06 09:46:46;;;;;;;10.00;2.50;;;24.40;48.00;;;;;;5037501;28;20045;-77
2021/10/06 09:49:34;;;;;;;12.48;1.73;;;24.50;46.30;;;;;;5040147;28;20040;-76
2021/10/06 09:52:23;;;;;;;6.30;1.20;;;24.60;46.70;;;;;;5039979;28;20026;-76
2021/10/06 09:54:52;;;;;;;4.13;1.30;;;24.70;47.10;;;;;;5036295;28;20508;-76
2021/10/06 09:57:39;;;;;;;6.68;1.50;;;24.70;47.30;;;;;;5036045;28;20056;-75
2021/10/06 10:00:20;;;;;;;4.32;1.60;;;24.90;46.60;;;;;;5040155;28;20373;-76
2021/10/06 10:02:50;;;;;;;7.00;2.17;;;24.90;45.70;;;;;;5036147;28;20053;-76
2021/10/06 10:05:17;;;;;;;6.82;1.33;;;25.00;46.10;;;;;;5034892;28;20033;-76
2021/10/06 10:07:43;;;;;;;3.10;1.33;;;25.00;45.80;;;;;;5038874;28;20112;-76
2021/10/06 10:10:12;;;;;;;3.22;1.10;;;25.20;45.10;;;;;;5036384;28;20022;-76
2021/10/06 10:12:39;;;;;;;6.00;2.13;;;25.20;44.40;;;;;;5036281;28;20063;-76
2021/10/06 10:15:06;;;;;;;11.27;2.80;;;25.30;43.80;;;;;;5038210;28;20013;-76
2021/10/06 10:17:32;;;;;;;8.13;2.10;;;25.40;44.00;;;;;;5036305;28;20033;-76
2021/10/06 10:20:01;;;;;;;7.00;1.60;;;25.50;45.30;;;;;;5035831;28;20506;-76
2021/10/06 10:22:40;;;;;;;4.60;1.50;;;25.60;44.20;;;;;;5034514;28;20034;-76
2021/10/06 10:25:21;;;;;;;9.52;1.80;;;25.70;44.10;;;;;;5035442;28;20032;-77
2021/10/06 10:28:07;;;;;;;7.80;1.45;;;25.70;44.50;;;;;;5037046;28;20020;-76
2021/10/06 10:30:36;;;;;;;4.63;1.95;;;25.80;44.40;;;;;;5036047;28;20176;-77
2021/10/06 10:33:04;;;;;;;5.28;1.40;;;25.90;44.80;;;;;;5034433;28;20018;-76
2021/10/06 10:35:37;;;;;;;3.92;1.65;;;26.00;45.80;;;;;;5040163;28;20024;-77
2021/10/06 10:38:03;;;;;;;7.07;1.80;;;26.00;45.70;;;;;;5033107;28;20024;-76
2021/10/06 10:40:32;;;;;;;7.40;2.13;;;26.10;46.00;;;;;;5036768;28;20013;-75
2021/10/06 10:43:03;;;;;;;9.15;2.08;;;26.20;46.30;;;;;;5033950;28;20033;-77
2021/10/06 10:45:50;;;;;;;7.20;2.00;;;26.20;45.80;;;;;;5034836;28;20163;-76
2021/10/06 10:48:22;;;;;;;5.22;2.50;;;26.30;45.70;;;;;;5034254;28;20088;-77
2021/10/06 10:50:51;;;;;;;8.07;2.90;;;26.40;46.30;;;;;;5036172;28;20022;-76
2021/10/06 10:53:20;;;;;;;11.25;2.50;;;26.50;46.40;;;;;;5042506;28;20452;-76
2021/10/06 10:55:55;;;;;;;4.78;1.38;;;26.60;46.10;;;;;;5036601;28;20056;-76
2021/10/06 10:58:31;;;;;;;7.07;2.08;;;26.70;45.70;;;;;;5033349;28;20037;-76
2021/10/06 11:00:59;;;;;;;7.00;1.60;;;26.70;45.10;;;;;;5037620;28;20029;-76
2021/10/06 11:03:26;;;;;;;3.03;1.50;;;26.80;45.10;;;;;;5034395;28;20053;-76
2021/10/06 11:05:53;;;;;;;5.28;1.77;;;26.90;44.30;;;;;;5033615;28;20021;-76
2021/10/06 11:08:33;;;;;;;5.75;2.00;;;27.00;44.30;;;;;;5042783;28;20033;-76
2021/10/06 11:11:15;;;;;;;10.05;2.83;;;27.00;43.90;;;;;;5041250;28;20179;-77
2021/10/06 11:13:43;;;;;;;6.10;1.60;;;27.00;43.70;;;;;;5041919;28;20028;-77
2021/10/06 11:16:10;;;;;;;8.02;1.90;;;27.00;43.50;;;;;;5036628;28;20026;-76
2021/10/06 11:18:57;;;;;;;4.78;1.60;;;27.10;44.10;;;;;;5036310;28;20048;-77
2021/10/06 11:21:40;;;;;;;4.47;1.63;;;27.20;44.20;;;;;;5042164;28;20112;-76
2021/10/06 11:24:25;;;;;;;4.13;1.30;;;27.20;43.70;;;;;;5040228;28;20040;-77
2021/10/06 11:27:00;;;;;;;11.05;1.88;;;27.30;43.40;;;;;;5042088;28;20049;-76
2021/10/06 11:29:26;;;;;;;6.82;2.05;;;27.30;43.50;;;;;;5043612;28;20476;-76
2021/10/06 11:32:01;;;;;;;6.32;2.33;;;27.40;43.50;;;;;;5043394;28;20024;-76
2021/10/06 11:34:28;;;;;;;4.75;2.03;;;27.40;42.70;;;;;;5044005;28;20024;-77
2021/10/06 11:36:55;;;;;;;5.75;1.60;;;27.50;43.20;;;;;;5039248;28;20002;-76
2021/10/06 11:39:25;;;;;;;4.10;1.60;;;27.60;43.30;;;;;;5043824;28;20024;-75
2021/10/06 11:41:53;;;;;;;5.53;2.75;;;27.70;43.30;;;;;;5044826;28;20009;-76
2021/10/06 11:44:33;;;;;;;8.75;1.90;;;27.80;43.20;;;;;;5043410;28;20051;-76
2021/10/06 11:47:15;;;;;;;5.80;1.60;;;27.90;42.40;;;;;;5045444;28;20021;-77
2021/10/06 11:49:44;;;;;;;8.13;1.63;;;27.90;41.90;;;;;;5045426;28;20022;-77
2021/10/06 11:52:17;;;;;;;4.78;1.73;;;28.00;42.40;;;;;;5047686;28;20046;-76
2021/10/06 11:54:45;;;;;;;5.63;2.00;;;28.00;42.50;;;;;;5044173;28;20502;-77
2021/10/06 11:57:17;;;;;;;6.78;2.13;;;28.10;41.70;;;;;;5049126;28;20013;-76
2021/10/06 11:59:47;;;;;;;4.47;1.60;;;28.10;41.20;;;;;;5049153;28;20017;-75
2021/10/06 12:02:18;;;;;;;3.75;1.52;;;28.20;41.40;;;;;;5047632;28;20048;-78
2021/10/06 12:04:47;;;;;;;4.95;1.80;;;28.20;41.40;;;;;;5044961;28;20053;-75
2021/10/06 12:07:22;;;;;;;7.10;1.80;;;28.30;41.30;;;;;;5046670;28;20367;-75
2021/10/06 12:09:56;;;;;;;3.47;1.88;;;28.40;41.50;;;;;;5044648;28;20017;-76
2021/10/06 12:12:39;;;;;;;9.30;1.90;;;28.40;41.30;;;;;;5045704;28;20494;-76
2021/10/06 12:15:11;;;;;;;8.80;1.60;;;28.50;41.50;;;;;;5054173;28;20052;-77
2021/10/06 12:17:41;;;;;;;6.45;1.67;;;28.50;41.40;;;;;;5042694;28;20918;-77
2021/10/06 12:20:17;;;;;;;7.90;1.42;;;28.60;41.50;;;;;;5044071;28;20104;-76
2021/10/06 12:22:43;;;;;;;4.70;2.00;;;28.60;40.60;;;;;;5042192;28;20052;-76
2021/10/06 12:25:14;;;;;;;5.40;1.90;;;28.60;40.40;;;;;;5048902;28;20312;-76
2021/10/06 12:27:47;;;;;;;8.30;3.10;;;28.70;40.60;;;;;;5043626;28;20044;-77
2021/10/06 12:30:21;;;;;;;5.80;1.83;;;28.70;41.30;;;;;;5047521;28;20021;-76
2021/10/06 12:32:50;;;;;;;4.43;1.88;;;28.70;41.40;;;;;;5042362;28;20588;-76
2021/10/06 12:35:20;;;;;;;8.50;2.30;;;28.70;41.20;;;;;;5045071;28;20044;-76
2021/10/06 12:37:50;;;;;;;8.20;2.30;;;28.70;40.90;;;;;;5041593;28;20020;-76
2021/10/06 12:40:55;;;;;;;7.13;1.98;;;28.80;41.40;;;;;;5043233;28;20053;-78
2021/10/06 12:43:24;;;;;;;9.07;2.72;;;28.80;40.70;;;;;;5025487;28;20033;-76
2021/10/06 12:46:02;;;;;;;6.25;2.92;;;28.80;41.20;;;;;;5026469;28;20037;-75
2021/10/06 12:48:42;;;;;;;7.72;2.20;;;28.80;41.70;;;;;;5031641;28;20029;-75
2021/10/06 12:51:25;;;;;;;7.03;1.83;;;28.80;42.10;;;;;;5044536;28;20997;-78
2021/10/06 12:53:51;;;;;;;7.07;1.98;;;28.80;42.00;;;;;;5043670;28;20719;-75